Time;durP1;ratioP1;P1;durP2;ratioP2;P2;SDS_P1;SDS_P2;PMS_P1;PMS_P2;Temp;Humidity;BMP_temperature;BMP_pressure;BME280_temperature;BME280_humidity;BME280_pressure;Samples;Min_cycle;Max_cycle;Signal;HPM_P1;HPM_P2
2022/12/23 00:00:13;;;;;;;15.48;5.63;;;;;;;8.55;97.84;99516.28;4936149;28;20036;-68
2022/12/23 00:02:39;;;;;;;8.05;5.22;;;;;;;8.64;98.11;99514.06;4947536;28;20030;-69
2022/12/23 00:05:05;;;;;;;15.35;5.30;;;;;;;8.67;98.01;99517.94;4939311;28;20045;-69
2022/12/23 00:07:31;;;;;;;10.10;5.28;;;;;;;8.60;98.05;99512.47;4939298;28;20039;-69
2022/12/23 00:09:56;;;;;;;13.65;5.93;;;;;;;8.68;98.45;99508.72;4937425;28;20147;-68
2022/12/23 00:15:07;;;;;;;11.50;4.80;;;;;;;8.73;98.05;99511.84;4932601;28;20031;-68
2022/12/23 00:17:40;;;;;;;10.60;5.05;;;;;;;8.76;97.90;99511.13;4937010;28;20094;-68
2022/12/23 00:20:06;;;;;;;16.42;5.47;;;;;;;8.76;97.92;99510.34;4932452;28;20043;-68
2022/12/23 00:25:16;;;;;;;12.30;4.32;;;;;;;8.82;97.69;99509.63;4934863;28;20125;-67
2022/12/23 00:28:00;;;;;;;8.98;4.15;;;;;;;8.83;97.78;99505.03;4940718;28;20110;-70
2022/12/23 00:30:28;;;;;;;12.55;5.53;;;;;;;8.82;97.50;99495.44;4943358;28;20039;-68
2022/12/23 00:32:53;;;;;;;14.18;5.72;;;;;;;8.76;97.76;99508.44;4944261;28;20039;-68
2022/12/23 00:35:19;;;;;;;12.52;5.82;;;;;;;8.81;97.95;99504.63;4943034;28;20038;-67
2022/12/23 00:37:44;;;;;;;11.25;5.28;;;;;;;8.82;98.20;99509.63;4953820;28;20493;-68
2022/12/23 00:42:59;;;;;;;9.20;4.75;;;;;;;8.83;97.57;99505.78;4938046;28;20042;-69
2022/12/23 00:45:25;;;;;;;11.68;4.65;;;;;;;8.83;97.90;99508.47;4950240;29;20114;-69
2022/12/23 00:50:38;;;;;;;12.10;5.40;;;;;;;8.86;97.73;99513.13;4949265;28;20043;-69
2022/12/23 00:53:04;;;;;;;9.05;4.97;;;;;;;8.86;97.80;99510.44;4946495;28;20027;-69
2022/12/23 00:55:30;;;;;;;12.57;5.03;;;;;;;8.87;97.80;99511.97;4942120;28;20077;-69
2022/12/23 00:57:55;;;;;;;13.77;5.13;;;;;;;8.88;98.02;99505.44;4951496;28;20063;-69
2022/12/23 01:05:35;;;;;;;10.90;4.75;;;;;;;8.90;97.62;99508.53;4953274;28;20035;-69
2022/12/23 01:06:00;;;;;;;11.27;4.82;;;;;;;8.91;97.67;99512.00;4953956;29;20097;-69
2022/12/23 01:08:26;;;;;;;13.95;5.38;;;;;;;8.90;97.64;99507.78;4955498;28;20035;-69
2022/12/23 01:10:51;;;;;;;21.80;7.57;;;;;;;8.87;97.91;99517.34;4954826;28;20035;-69
2022/12/23 01:13:17;;;;;;;11.95;5.57;;;;;;;8.90;97.90;99508.53;4952315;28;20039;-69
2022/12/23 01:15:43;;;;;;;16.27;6.28;;;;;;;8.91;98.01;99503.94;4955269;28;20038;-69
2022/12/23 01:18:08;;;;;;;12.88;5.65;;;;;;;8.91;97.90;99496.66;4955761;28;20128;-69
2022/12/23 01:20:37;;;;;;;14.45;4.95;;;;;;;8.92;97.74;99503.56;4953596;28;20118;-68
2022/12/23 01:23:03;;;;;;;14.57;6.15;;;;;;;8.91;97.71;99502.03;4950124;29;20026;-68
2022/12/23 01:25:29;;;;;;;11.85;5.05;;;;;;;8.89;97.81;99493.56;4954119;28;20035;-69
2022/12/23 01:27:55;;;;;;;11.18;4.70;;;;;;;8.87;98.13;99501.22;4954519;29;20031;-67
2022/12/23 01:30:20;;;;;;;10.25;4.70;;;;;;;8.92;98.08;99502.81;4953241;28;20038;-68
2022/12/23 01:32:46;;;;;;;13.93;6.03;;;;;;;8.92;97.85;99498.19;4952641;28;20680;-69
2022/12/23 01:35:12;;;;;;;16.70;6.47;;;;;;;8.82;98.26;99495.44;4950478;29;20023;-69
2022/12/23 01:37:37;;;;;;;15.38;5.97;;;;;;;8.78;98.16;99503.47;4955030;28;20054;-69
2022/12/23 01:40:03;;;;;;;15.23;7.25;;;;;;;8.70;98.60;99507.22;4952454;28;20024;-69
2022/12/23 01:42:45;;;;;;;21.80;7.78;;;;;;;8.71;99.02;99498.03;4951999;29;20035;-69
2022/12/23 01:45:40;;;;;;;;;;;;;;;8.75;98.89;99501.50;4953695;28;20133;-69
2022/12/23 01:48:25;;;;;;;18.17;6.65;;;;;;;8.72;98.84;99502.25;4941256;28;19914;-69
2022/12/23 01:51:05;;;;;;;11.27;6.18;;;;;;;8.75;99.18;99506.13;4950059;28;20047;-69
2022/12/23 01:53:37;;;;;;;12.07;5.65;;;;;;;8.76;99.02;99496.91;4943226;29;20043;-69
2022/12/23 01:56:17;;;;;;;13.40;6.72;;;;;;;8.80;98.98;99501.19;4953517;28;20516;-68
2022/12/23 01:58:54;;;;;;;17.10;6.40;;;;;;;8.81;98.98;99502.72;4953013;29;20043;-69
2022/12/23 02:04:08;;;;;;;18.08;6.45;;;;;;;8.82;99.23;99508.84;4948219;28;20102;-68
2022/12/23 02:09:37;;;;;;;12.23;5.75;;;;;;;8.80;99.11;99503.88;4934167;29;20050;-68
2022/12/23 02:12:34;;;;;;;17.23;6.65;;;;;;;8.82;99.49;99504.28;4937631;28;20035;-68
2022/12/23 02:18:21;;;;;;;12.10;5.03;;;;;;;8.85;99.32;99508.88;4953421;28;20047;-69
2022/12/23 02:21:10;;;;;;;12.00;5.40;;;;;;;8.85;99.26;99508.88;4932840;29;20047;-68
2022/12/23 02:23:36;;;;;;;10.82;5.20;;;;;;;8.87;99.33;99508.50;4940109;28;20126;-65
2022/12/23 02:26:18;;;;;;;14.77;6.60;;;;;;;8.87;99.09;99511.97;4949401;28;20062;-67
2022/12/23 02:29:32;;;;;;;11.35;4.97;;;;;;;8.90;98.77;99521.94;4955232;28;20034;-66
2022/12/23 02:32:00;;;;;;;18.30;5.97;;;;;;;8.88;99.20;99504.69;4954077;28;20388;-66
2022/12/23 02:34:25;;;;;;;18.33;6.03;;;;;;;8.89;98.99;99509.69;4953860;29;20056;-68
2022/12/23 02:37:02;;;;;;;13.95;6.80;;;;;;;8.74;99.78;99501.88;4957706;28;20035;-66
2022/12/23 02:39:46;;;;;;;14.38;6.32;;;;;;;8.66;100.00;99495.69;4950652;28;20044;-67
2022/12/23 02:42:16;;;;;;;15.88;5.90;;;;;;;8.66;100.00;99509.09;4951666;28;20667;-67
2022/12/23 02:44:51;;;;;;;9.70;4.95;;;;;;;8.74;100.00;99516.09;4952589;29;20113;-66
2022/12/23 02:47:23;;;;;;;11.38;6.85;;;;;;;8.78;100.00;99518.78;4952438;29;20038;-66
2022/12/23 02:49:54;;;;;;;14.90;6.57;;;;;;;8.80;100.00;99516.50;4953745;28;20055;-65
2022/12/23 02:52:26;;;;;;;13.70;5.88;;;;;;;8.88;100.00;99518.13;4940500;28;20043;-66
2022/12/23 02:54:53;;;;;;;;;;;;;;;8.91;100.00;99520.81;4954327;28;20448;-65
2022/12/23 02:57:24;;;;;;;16.02;5.05;;;;;;;8.94;100.00;99519.31;4949435;28;20655;-65
2022/12/23 02:59:50;;;;;;;12.38;6.05;;;;;;;8.96;100.00;99519.72;4942524;29;20039;-65
2022/12/23 03:02:17;;;;;;;17.65;5.78;;;;;;;8.98;99.64;99525.50;4951787;29;20043;-66
2022/12/23 03:04:42;;;;;;;12.77;5.30;;;;;;;9.01;99.81;99528.19;4948276;28;20127;-67
2022/12/23 03:07:22;;;;;;;14.77;5.80;;;;;;;8.98;99.73;99525.50;4947024;29;20468;-66
2022/12/23 03:10:02;;;;;;;18.70;7.25;;;;;;;8.92;100.00;99525.03;4940293;29;20416;-65
2022/12/23 03:13:00;;;;;;;14.25;5.55;;;;;;;8.87;100.00;99533.44;4945112;28;20102;-66
2022/12/23 03:15:36;;;;;;;14.52;5.13;;;;;;;8.91;100.00;99539.63;4952151;29;20069;-65
2022/12/23 03:18:25;;;;;;;13.98;5.95;;;;;;;8.88;100.00;99540.34;4952192;29;20126;-65
2022/12/23 03:20:57;;;;;;;13.63;6.45;;;;;;;8.92;100.00;99540.41;4951485;29;20055;-67
2022/12/23 03:23:34;;;;;;;14.48;6.00;;;;;;;8.99;100.00;99543.91;4951637;28;20039;-67
2022/12/23 03:26:16;;;;;;;23.38;6.35;;;;;;;8.96;100.00;99536.56;4945585;28;20042;-66
2022/12/23 03:28:50;;;;;;;9.20;5.65;;;;;;;9.01;100.00;99538.94;4950906;28;20559;-66
2022/12/23 03:31:22;;;;;;;15.27;6.03;;;;;;;9.04;100.00;99537.41;4958900;28;20027;-67
2022/12/23 03:33:56;;;;;;;13.23;5.20;;;;;;;8.98;100.00;99538.91;4943663;29;20031;-67
2022/12/23 03:36:26;;;;;;;15.63;5.55;;;;;;;8.94;100.00;99549.59;4953021;28;20504;-67
2022/12/23 03:38:54;;;;;;;11.15;4.88;;;;;;;9.02;100.00;99551.22;4950934;28;20078;-67
2022/12/23 03:41:29;;;;;;;10.43;4.70;;;;;;;9.05;100.00;99553.16;4947018;29;20516;-67
2022/12/23 03:44:02;;;;;;;12.35;5.35;;;;;;;9.05;100.00;99560.44;4949579;28;20078;-67
2022/12/23 03:46:43;;;;;;;13.52;5.90;;;;;;;9.05;100.00;99555.06;4947762;29;20476;-67
2022/12/23 03:49:15;;;;;;;10.70;5.05;;;;;;;9.06;100.00;99554.69;4951382;28;20054;-67
2022/12/23 03:51:53;;;;;;;13.25;5.20;;;;;;;9.11;100.00;99558.97;4950504;29;20035;-66
2022/12/23 03:54:24;;;;;;;12.25;4.75;;;;;;;9.03;100.00;99546.63;4950723;28;20217;-67
2022/12/23 03:56:56;;;;;;;13.50;6.00;;;;;;;9.04;100.00;99546.25;4952694;28;20118;-66
2022/12/23 03:59:29;;;;;;;13.23;5.93;;;;;;;9.09;100.00;99551.28;4945728;28;20079;-68
2022/12/23 04:02:16;;;;;;;14.07;5.53;;;;;;;9.09;100.00;99561.25;4949609;29;20493;-67
2022/12/23 04:05:06;;;;;;;19.55;6.15;;;;;;;9.09;100.00;99551.28;4950633;29;20501;-67
2022/12/23 04:07:41;;;;;;;13.65;5.88;;;;;;;9.10;100.00;99557.41;4952446;29;20057;-67
2022/12/23 04:10:08;;;;;;;12.45;5.65;;;;;;;9.14;100.00;99557.47;4939869;28;20039;-67
2022/12/23 04:12:34;;;;;;;16.98;6.68;;;;;;;9.19;100.00;99559.78;4951440;29;20030;-67
2022/12/23 04:14:59;;;;;;;15.38;6.07;;;;;;;9.20;100.00;99556.72;4954443;28;20485;-66
2022/12/23 04:17:25;;;;;;;16.80;6.50;;;;;;;9.21;100.00;99560.19;4950810;29;20035;-66
2022/12/23 04:19:51;;;;;;;12.48;5.57;;;;;;;9.17;99.83;99572.81;4951175;28;20028;-66
2022/12/23 04:22:17;;;;;;;13.65;6.63;;;;;;;9.12;100.00;99565.13;4951569;28;20469;-67
2022/12/23 04:24:42;;;;;;;16.67;6.90;;;;;;;8.98;100.00;99576.50;4952181;28;20067;-66
2022/12/23 04:27:12;;;;;;;14.55;6.28;;;;;;;8.97;100.00;99573.03;4950551;28;20027;-66
2022/12/23 04:29:37;;;;;;;16.40;6.30;;;;;;;8.99;100.00;99573.44;4963140;28;20031;-67
2022/12/23 04:32:03;;;;;;;11.90;5.43;;;;;;;9.04;100.00;99573.09;4951828;28;20042;-66
2022/12/23 04:34:29;;;;;;;17.23;6.22;;;;;;;9.07;100.00;99572.38;4951711;28;20038;-67
2022/12/23 04:36:54;;;;;;;18.67;7.40;;;;;;;9.06;100.00;99572.72;4951133;28;20159;-67
2022/12/23 04:39:20;;;;;;;16.88;7.80;;;;;;;9.07;100.00;99572.38;4946537;28;20043;-69
2022/12/23 04:41:45;;;;;;;14.45;6.38;;;;;;;9.10;100.00;99576.22;4950666;29;20524;-66
2022/12/23 04:44:11;;;;;;;16.77;5.72;;;;;;;9.10;100.00;99576.22;4947474;29;20039;-67
2022/12/23 04:46:36;;;;;;;16.48;7.30;;;;;;;9.13;100.00;99590.81;4951863;29;20039;-67
2022/12/23 04:49:01;;;;;;;19.45;7.45;;;;;;;9.04;100.00;99580.38;4952296;28;20513;-66
2022/12/23 04:51:27;;;;;;;14.50;6.15;;;;;;;9.07;100.00;99585.78;4937748;28;20032;-67
2022/12/23 04:53:52;;;;;;;17.80;7.28;;;;;;;9.13;100.00;99590.81;4948836;28;20031;-67
2022/12/23 04:56:18;;;;;;;13.65;6.65;;;;;;;9.15;100.00;99583.16;4948454;29;20506;-67
2022/12/23 04:58:43;;;;;;;17.20;6.78;;;;;;;9.17;100.00;99578.19;4952932;28;20523;-67
2022/12/23 05:01:10;;;;;;;15.13;6.03;;;;;;;9.17;100.00;99578.19;4950411;29;20035;-67
2022/12/23 05:03:36;;;;;;;15.02;6.35;;;;;;;9.20;100.00;99582.81;4945990;28;20035;-67
2022/12/23 05:06:02;;;;;;;13.55;5.60;;;;;;;9.20;100.00;99562.09;4951081;29;20035;-67
2022/12/23 05:08:28;;;;;;;15.50;6.22;;;;;;;9.21;100.00;99562.88;4951115;28;20089;-67
2022/12/23 05:10:54;;;;;;;14.25;5.90;;;;;;;9.22;100.00;99577.84;4942081;28;20110;-67
2022/12/23 05:13:20;;;;;;;16.55;6.55;;;;;;;9.22;100.00;99581.31;4951588;29;20051;-67
2022/12/23 05:15:49;;;;;;;14.05;6.10;;;;;;;9.26;100.00;99584.00;4952073;28;20121;-67
2022/12/23 05:18:15;;;;;;;12.98;5.65;;;;;;;9.27;99.88;99582.88;4949548;28;20054;-67
2022/12/23 05:20:40;;;;;;;19.80;7.03;;;;;;;9.22;99.60;99588.56;4947870;28;20190;-67
2022/12/23 05:23:06;;;;;;;14.38;6.95;;;;;;;9.17;100.00;99586.25;4949774;28;20511;-66
2022/12/23 05:25:33;;;;;;;11.00;5.47;;;;;;;9.15;100.00;99596.59;4952985;28;20030;-67
2022/12/23 05:27:58;;;;;;;17.35;6.47;;;;;;;9.14;100.00;99590.44;4950788;28;20039;-67
2022/12/23 05:30:24;;;;;;;19.92;7.10;;;;;;;9.16;100.00;99595.44;4931836;28;20028;-67
2022/12/23 05:32:55;;;;;;;16.27;6.47;;;;;;;9.10;100.00;99598.47;4948980;28;20027;-67
2022/12/23 05:35:22;;;;;;;16.83;6.35;;;;;;;9.10;100.00;99597.69;4938560;28;20058;-68
2022/12/23 05:37:48;;;;;;;18.15;6.57;;;;;;;9.11;100.00;99604.63;4940954;28;20032;-67
2022/12/23 05:40:13;;;;;;;15.88;7.05;;;;;;;9.13;100.00;99598.88;4957349;28;20042;-67
2022/12/23 05:42:39;;;;;;;18.20;5.90;;;;;;;9.18;100.00;99595.84;4953488;29;20045;-67
2022/12/23 05:45:05;;;;;;;19.67;7.55;;;;;;;9.21;100.00;99600.47;4953518;28;20063;-67
2022/12/23 05:47:30;;;;;;;19.48;6.88;;;;;;;9.21;100.00;99608.53;4947324;28;20027;-67
2022/12/23 05:49:56;;;;;;;18.42;6.68;;;;;;;9.17;100.00;99611.19;4953271;29;20034;-67
2022/12/23 05:52:21;;;;;;;17.02;7.35;;;;;;;9.18;100.00;99615.41;4949485;29;20110;-66
2022/12/23 05:54:47;;;;;;;18.70;7.43;;;;;;;9.22;100.00;99615.44;4943358;29;20091;-67
2022/12/23 05:57:12;;;;;;;18.30;8.07;;;;;;;9.23;100.00;99625.06;4951795;29;20035;-66
2022/12/23 05:59:38;;;;;;;16.80;7.22;;;;;;;9.19;100.00;99633.09;4952367;28;20035;-67
2022/12/23 06:02:24;;;;;;;27.05;8.43;;;;;;;9.16;100.00;99636.50;4942580;29;20030;-66
2022/12/23 06:04:49;;;;;;;15.82;6.65;;;;;;;9.15;100.00;99639.56;4879670;29;20171;-67
2022/12/23 06:07:15;;;;;;;19.13;7.93;;;;;;;9.14;100.00;99649.53;4895562;29;20124;-66
2022/12/23 06:09:41;;;;;;;25.17;8.50;;;;;;;9.13;100.00;99648.00;4894382;29;20523;-66
2022/12/23 06:12:07;;;;;;;16.77;7.07;;;;;;;9.08;100.00;99649.09;4894231;29;20037;-67
2022/12/23 06:14:32;;;;;;;21.42;7.00;;;;;;;9.13;100.00;99639.16;4883267;29;20044;-67
2022/12/23 06:16:58;;;;;;;18.17;7.47;;;;;;;9.14;100.00;99638.03;4893779;29;20051;-67
2022/12/23 06:19:25;;;;;;;24.33;6.95;;;;;;;9.18;100.00;99630.75;4894317;29;20044;-67
2022/12/23 06:21:50;;;;;;;20.73;7.95;;;;;;;9.18;100.00;99639.59;4893773;29;20070;-67
2022/12/23 06:24:15;;;;;;;26.73;8.73;;;;;;;9.21;100.00;99632.72;4894730;29;20527;-67
2022/12/23 06:26:41;;;;;;;22.58;7.72;;;;;;;9.17;100.00;99637.28;4893249;29;20036;-67
2022/12/23 06:29:07;;;;;;;19.40;7.65;;;;;;;9.24;100.00;99640.00;4893067;29;20899;-68
2022/12/23 06:31:32;;;;;;;14.57;6.18;;;;;;;9.33;100.00;99651.25;4863942;29;20084;-68
2022/12/23 06:33:58;;;;;;;20.23;7.85;;;;;;;9.33;100.00;99630.50;4894213;29;20071;-68
2022/12/23 06:36:23;;;;;;;25.70;8.70;;;;;;;9.30;100.00;99642.00;4894520;29;20033;-67
2022/12/23 06:38:48;;;;;;;21.10;7.10;;;;;;;9.29;100.00;99645.06;4893455;29;20585;-68
2022/12/23 06:41:14;;;;;;;27.90;8.32;;;;;;;9.22;100.00;99642.31;4894478;29;20469;-68
2022/12/23 06:43:40;;;;;;;14.15;6.55;;;;;;;9.18;100.00;99661.06;4948605;28;20027;-68
2022/12/23 06:46:05;;;;;;;23.27;7.32;;;;;;;9.16;100.00;99668.72;4947315;29;20039;-68
2022/12/23 06:48:31;;;;;;;16.05;6.45;;;;;;;9.19;100.00;99657.25;4931918;28;20046;-68
2022/12/23 06:50:56;;;;;;;16.17;6.93;;;;;;;9.20;100.00;99650.72;4951611;29;20046;-68
2022/12/23 06:53:23;;;;;;;21.40;7.00;;;;;;;9.22;100.00;99653.03;4953721;28;20047;-68
2022/12/23 06:55:48;;;;;;;19.67;6.38;;;;;;;9.29;100.00;99656.56;4948814;28;20098;-68
2022/12/23 06:58:14;;;;;;;22.95;7.38;;;;;;;9.28;100.00;99657.72;4954308;28;20035;-68
2022/12/23 07:00:39;;;;;;;22.75;8.32;;;;;;;9.30;100.00;99655.44;4951997;29;20039;-68
2022/12/23 07:03:05;;;;;;;20.15;7.82;;;;;;;9.30;100.00;99660.81;4946026;28;20034;-68
2022/12/23 07:05:30;;;;;;;21.15;7.30;;;;;;;9.32;100.00;99652.38;4947722;29;20035;-68
2022/12/23 07:07:57;;;;;;;24.20;8.98;;;;;;;9.21;100.00;99665.72;4954000;28;20035;-68
2022/12/23 07:10:22;;;;;;;18.55;7.15;;;;;;;9.16;100.00;99657.19;4950861;28;20396;-68
2022/12/23 07:12:48;;;;;;;20.05;7.43;;;;;;;9.21;100.00;99662.25;4935376;28;20034;-68
2022/12/23 07:15:13;;;;;;;22.35;7.63;;;;;;;9.19;100.00;99672.59;4953797;28;20042;-68
2022/12/23 07:17:38;;;;;;;15.65;6.90;;;;;;;9.19;100.00;99675.28;4953312;28;20035;-67
2022/12/23 07:20:05;;;;;;;16.40;6.95;;;;;;;9.12;100.00;99685.97;4946771;28;20047;-68
2022/12/23 07:22:30;;;;;;;19.17;7.20;;;;;;;9.13;100.00;99690.19;4943563;28;20067;-68
2022/12/23 07:24:55;;;;;;;19.15;7.10;;;;;;;9.17;100.00;99691.00;4948836;28;20056;-68
2022/12/23 07:27:21;;;;;;;17.00;6.68;;;;;;;9.13;100.00;99695.56;4947783;29;20023;-68
2022/12/23 07:29:46;;;;;;;16.10;6.68;;;;;;;9.04;100.00;99691.25;4952893;28;20031;-68
2022/12/23 07:32:12;;;;;;;16.70;5.72;;;;;;;9.10;100.00;99689.00;4945876;28;20040;-68
2022/12/23 07:34:37;;;;;;;18.35;6.78;;;;;;;9.11;100.00;99698.63;4950596;29;20381;-67
2022/12/23 07:37:02;;;;;;;17.05;6.50;;;;;;;9.17;100.00;99707.09;4927031;29;20027;-67
2022/12/23 07:39:28;;;;;;;17.02;6.90;;;;;;;9.21;100.00;99706.00;4952743;28;20066;-67
2022/12/23 07:41:53;;;;;;;19.05;7.43;;;;;;;9.11;100.00;99703.97;4944566;28;20035;-68
2022/12/23 07:44:19;;;;;;;24.00;7.97;;;;;;;9.01;100.00;99718.84;4950293;28;20046;-68
2022/12/23 07:46:44;;;;;;;20.33;6.93;;;;;;;9.09;100.00;99725.06;4953078;28;20043;-67
2022/12/23 07:49:10;;;;;;;18.48;7.10;;;;;;;9.11;100.00;99728.16;4950310;28;20045;-68
2022/12/23 07:51:35;;;;;;;22.42;7.55;;;;;;;9.19;100.00;99726.31;4942518;28;20067;-68
2022/12/23 07:54:01;;;;;;;20.95;7.03;;;;;;;9.12;100.00;99732.38;4950404;29;20043;-65
2022/12/23 07:56:26;;;;;;;17.85;6.97;;;;;;;9.10;100.00;99724.69;4941120;28;20138;-69
2022/12/23 07:58:52;;;;;;;13.38;5.60;;;;;;;9.13;100.00;99722.41;4949642;29;20114;-68
2022/12/23 08:01:19;;;;;;;22.27;5.53;;;;;;;9.09;100.00;99741.97;4951892;29;20527;-68
2022/12/23 08:03:45;;;;;;;18.40;7.88;;;;;;;9.15;100.00;99736.25;4951383;28;20114;-68
2022/12/23 08:06:13;;;;;;;12.85;6.53;;;;;;;9.18;100.00;99738.19;4942714;28;20031;-68
2022/12/23 08:08:40;;;;;;;19.23;7.10;;;;;;;9.17;100.00;99742.03;4947229;28;20465;-69
2022/12/23 08:11:08;;;;;;;15.43;6.63;;;;;;;9.20;100.00;99749.34;4951914;29;20343;-69
2022/12/23 08:13:35;;;;;;;18.30;6.20;;;;;;;9.20;100.00;99734.00;4942222;28;20023;-68
2022/12/23 08:16:02;;;;;;;17.17;6.38;;;;;;;9.23;100.00;99743.25;4952898;28;20035;-69
2022/12/23 08:18:30;;;;;;;20.75;6.65;;;;;;;9.31;100.00;99742.19;4951485;28;20046;-67
2022/12/23 08:21:18;;;;;;;22.02;7.47;;;;;;;9.33;100.00;99746.03;4942616;28;20039;-68
2022/12/23 08:23:46;;;;;;;16.42;6.15;;;;;;;9.38;100.00;99740.34;4949016;29;20035;-67
2022/12/23 08:26:22;;;;;;;15.98;5.78;;;;;;;9.39;100.00;99743.81;4945456;28;20381;-67
2022/12/23 08:28:52;;;;;;;19.30;6.97;;;;;;;9.33;100.00;99748.72;4951564;29;20484;-68
2022/12/23 08:31:20;;;;;;;20.98;6.40;;;;;;;9.32;100.00;99759.84;4950912;28;20043;-68
2022/12/23 08:33:49;;;;;;;20.00;7.05;;;;;;;9.26;100.00;99758.63;4951589;29;20035;-68
2022/12/23 08:36:18;;;;;;;20.55;6.80;;;;;;;9.26;100.00;99761.31;4949563;28;20079;-67
2022/12/23 08:38:44;;;;;;;19.83;6.55;;;;;;;9.31;100.00;99769.03;4951218;29;20045;-67
2022/12/23 08:41:11;;;;;;;14.18;5.78;;;;;;;9.25;100.00;99768.59;4948299;29;20027;-67
2022/12/23 08:43:37;;;;;;;19.15;6.50;;;;;;;9.30;100.00;99759.44;4945874;28;20032;-67
2022/12/23 08:46:03;;;;;;;25.35;6.88;;;;;;;9.33;100.00;99769.44;4943090;29;20079;-67
2022/12/23 08:48:29;;;;;;;15.40;6.07;;;;;;;9.37;100.00;99775.63;4939180;28;20043;-67
2022/12/23 08:50:55;;;;;;;20.20;7.75;;;;;;;9.42;100.00;99777.97;4953203;28;20031;-67
2022/12/23 08:53:21;;;;;;;23.30;7.53;;;;;;;9.31;100.00;99777.09;4938329;29;20035;-68
2022/12/23 08:55:47;;;;;;;14.38;6.47;;;;;;;9.32;100.00;99775.94;4937876;29;20034;-66
2022/12/23 08:58:14;;;;;;;16.95;7.13;;;;;;;9.34;100.00;99784.41;4947768;28;20031;-69
2022/12/23 09:00:40;;;;;;;22.90;7.22;;;;;;;9.36;100.00;99790.19;4937791;28;20036;-65
2022/12/23 09:03:06;;;;;;;20.40;6.30;;;;;;;9.36;100.00;99800.94;4939595;29;20083;-68
2022/12/23 09:05:32;;;;;;;23.65;6.80;;;;;;;9.34;100.00;99797.84;4958146;28;20157;-67
2022/12/23 09:07:59;;;;;;;19.70;7.68;;;;;;;9.31;100.00;99801.28;4950707;29;20595;-67
2022/12/23 09:10:25;;;;;;;14.30;6.75;;;;;;;9.10;100.00;99807.16;4945031;28;20090;-68
2022/12/23 09:12:50;;;;;;;20.17;7.63;;;;;;;9.03;100.00;99807.88;4936745;28;20066;-65
2022/12/23 09:15:16;;;;;;;14.98;6.75;;;;;;;9.01;100.00;99804.00;4939811;28;20043;-66
2022/12/23 09:17:43;;;;;;;15.55;5.22;;;;;;;9.09;100.00;99803.72;4947752;28;20050;-68
2022/12/23 09:20:09;;;;;;;14.45;4.95;;;;;;;9.13;100.00;99803.75;4935225;28;20119;-68
2022/12/23 09:22:35;;;;;;;20.58;6.97;;;;;;;9.18;100.00;99806.13;4954763;28;20117;-69
2022/12/23 09:25:00;;;;;;;21.05;7.78;;;;;;;9.05;100.00;99802.13;4945491;28;20054;-68
2022/12/23 09:27:26;;;;;;;24.17;6.82;;;;;;;9.16;100.00;99807.59;4962908;28;20478;-69
2022/12/23 09:29:51;;;;;;;26.27;8.05;;;;;;;9.18;100.00;99802.66;4950773;28;20035;-69
2022/12/23 09:32:18;;;;;;;14.65;6.53;;;;;;;9.21;100.00;99799.25;4945468;28;20043;-69
2022/12/23 09:34:43;;;;;;;18.98;5.80;;;;;;;9.21;100.00;99786.59;4950038;29;20047;-68
2022/12/23 09:37:08;;;;;;;21.23;6.55;;;;;;;9.25;100.00;99795.47;4946082;29;20404;-69
2022/12/23 09:39:34;;;;;;;18.95;5.78;;;;;;;9.38;100.00;99804.81;4946220;28;20471;-68
2022/12/23 09:42:27;;;;;;;20.15;7.38;;;;;;;9.42;100.00;99802.94;4944879;28;20816;-67
2022/12/23 09:45:01;;;;;;;12.13;5.75;;;;;;;9.42;100.00;99808.31;4945792;28;20038;-67
2022/12/23 09:47:29;;;;;;;19.38;6.40;;;;;;;9.39;100.00;99810.97;4945363;28;20473;-68
2022/12/23 09:49:59;;;;;;;17.08;7.32;;;;;;;9.31;100.00;99815.47;4935795;28;20078;-68
2022/12/23 09:52:38;;;;;;;17.77;6.18;;;;;;;9.26;100.00;99817.72;4932207;29;20039;-67
2022/12/23 09:55:10;;;;;;;12.23;5.40;;;;;;;9.22;100.00;99827.63;4947056;28;20693;-68
2022/12/23 09:58:00;;;;;;;19.95;5.05;;;;;;;9.23;100.00;99831.88;4937588;28;20118;-69
2022/12/23 10:00:33;;;;;;;17.55;6.53;;;;;;;9.23;100.00;99829.97;4907088;29;20052;-66
2022/12/23 10:03:01;;;;;;;18.00;5.65;;;;;;;9.23;100.00;99824.59;4908398;29;20052;-68
2022/12/23 10:05:49;;;;;;;14.90;6.40;;;;;;;9.20;100.00;99819.16;4909697;29;20529;-68
2022/12/23 10:08:27;;;;;;;18.67;5.63;;;;;;;9.29;100.00;99814.31;4912284;29;20554;-67
2022/12/23 10:11:01;;;;;;;15.20;6.07;;;;;;;9.30;100.00;99813.94;4909076;29;20074;-68
2022/12/23 10:13:34;;;;;;;11.85;4.68;;;;;;;9.28;100.00;99807.38;4900546;29;20040;-67
2022/12/23 10:16:14;;;;;;;14.68;6.05;;;;;;;9.31;100.00;99810.09;4897174;29;20516;-67
2022/12/23 10:18:49;;;;;;;19.92;6.18;;;;;;;9.31;100.00;99799.34;4908953;29;20043;-68
2022/12/23 10:21:30;;;;;;;16.00;6.07;;;;;;;9.33;100.00;99807.81;4909507;29;20379;-67
2022/12/23 10:23:59;;;;;;;14.35;6.20;;;;;;;9.40;100.00;99809.81;4911108;29;20059;-65
2022/12/23 10:26:36;;;;;;;25.25;7.28;;;;;;;9.46;100.00;99809.13;4897269;29;20044;-67
2022/12/23 10:29:19;;;;;;;12.02;5.40;;;;;;;9.42;100.00;99810.22;4908846;29;20090;-68
2022/12/23 10:32:05;;;;;;;19.27;6.45;;;;;;;9.41;100.00;99819.41;4903210;29;20096;-68
2022/12/23 10:35:00;;;;;;;19.85;6.53;;;;;;;9.43;100.00;99812.53;4911647;29;20408;-69
2022/12/23 10:37:29;;;;;;;13.82;5.22;;;;;;;9.28;100.00;99805.47;4932108;29;20051;-67
2022/12/23 10:40:34;;;;;;;13.30;6.07;;;;;;;9.38;100.00;99817.47;4940584;28;20122;-68
2022/12/23 10:43:15;;;;;;;17.80;6.93;;;;;;;9.41;100.00;99814.03;4958112;28;20146;-67
2022/12/23 10:45:55;;;;;;;;;;;;;;;9.47;100.00;99807.19;4940570;28;20088;-68
2022/12/23 10:49:02;;;;;;;21.10;7.05;;;;;;;9.49;100.00;99816.44;4962862;28;19914;-66
2022/12/23 10:51:33;;;;;;;18.85;5.68;;;;;;;9.49;100.00;99819.13;4890856;29;20583;-68
2022/12/23 10:54:08;;;;;;;;;;;;;;;9.42;100.00;99812.91;4878500;29;20083;-69
2022/12/23 10:56:34;;;;;;;18.83;5.50;;;;;;;9.54;100.00;99818.03;4894448;29;19945;-67
2022/12/23 10:59:00;;;;;;;15.40;6.95;;;;;;;9.56;100.00;99821.13;4892822;29;20036;-69
2022/12/23 11:01:28;;;;;;;22.23;7.07;;;;;;;9.54;100.00;99812.66;4892349;29;20556;-69
2022/12/23 11:04:07;;;;;;;27.52;7.72;;;;;;;9.54;100.00;99809.97;4874058;29;20033;-67
2022/12/23 11:06:39;;;;;;;18.98;7.13;;;;;;;9.48;100.00;99800.69;4888965;29;20041;-67
2022/12/23 11:09:12;;;;;;;20.35;6.68;;;;;;;9.41;100.00;99804.06;4893464;29;20528;-66
2022/12/23 11:12:04;;;;;;;19.55;7.45;;;;;;;9.34;100.00;99809.38;4876523;29;20032;-68
2022/12/23 11:14:51;;;;;;;19.33;6.10;;;;;;;9.38;100.00;99812.09;4888846;29;20039;-68
2022/12/23 11:17:23;;;;;;;20.55;6.40;;;;;;;9.43;100.00;99822.50;4890157;29;20041;-67
2022/12/23 11:20:15;;;;;;;21.48;6.93;;;;;;;9.39;100.00;99822.47;4890511;29;20077;-69
2022/12/23 11:23:00;;;;;;;17.33;7.07;;;;;;;9.43;100.00;99817.91;4885979;29;20041;-67
2022/12/23 11:25:27;;;;;;;22.23;6.72;;;;;;;9.52;100.00;99820.31;4893075;29;20044;-67
2022/12/23 11:27:57;;;;;;;27.00;8.35;;;;;;;9.45;100.00;99830.97;4909541;28;20412;-67
2022/12/23 11:30:24;;;;;;;20.63;6.43;;;;;;;9.47;100.00;99831.38;4949318;28;20023;-66
2022/12/23 11:32:50;;;;;;;13.30;5.75;;;;;;;9.48;100.00;99819.50;4950549;28;20055;-67
2022/12/23 11:35:28;;;;;;;17.08;7.07;;;;;;;9.48;100.00;99811.44;4932704;29;20035;-66
2022/12/23 11:37:54;;;;;;;15.60;5.72;;;;;;;9.52;100.00;99809.56;4952082;28;20038;-67
2022/12/23 11:40:32;;;;;;;17.20;6.45;;;;;;;9.56;100.00;99805.00;4946644;28;20394;-66
2022/12/23 11:43:01;;;;;;;21.85;6.53;;;;;;;9.61;100.00;99802.75;4940618;28;21530;-65
2022/12/23 11:45:29;;;;;;;18.45;6.60;;;;;;;9.66;100.00;99796.25;4942299;28;20031;-67
2022/12/23 11:47:55;;;;;;;17.02;5.90;;;;;;;9.67;100.00;99792.44;4961547;28;20039;-67
2022/12/23 11:50:39;;;;;;;13.95;6.25;;;;;;;9.66;100.00;99788.19;4944443;28;20110;-67
2022/12/23 11:53:21;;;;;;;17.23;6.00;;;;;;;9.70;100.00;99784.41;4935063;29;20063;-66
2022/12/23 11:56:12;;;;;;;18.48;6.60;;;;;;;9.63;100.00;99788.94;4933662;28;20040;-69
2022/12/23 11:58:52;;;;;;;23.38;6.70;;;;;;;9.46;100.00;99792.22;4941222;28;20065;-68
2022/12/23 12:01:21;;;;;;;15.57;6.20;;;;;;;9.63;100.00;99795.09;4948372;28;20035;-68
2022/12/23 12:03:57;;;;;;;17.83;7.85;;;;;;;9.75;100.00;99792.16;4947131;28;20039;-68
2022/12/23 12:06:25;;;;;;;23.45;7.40;;;;;;;9.86;100.00;99793.00;4943970;29;20039;-68